Time;durP1;ratioP1;P1;durP2;ratioP2;P2;SDS_P1;SDS_P2;PMS_P1;PMS_P2;Temp;Humidity;BMP_temperature;BMP_pressure;BME280_temperature;BME280_humidity;BME280_pressure;Samples;Min_cycle;Max_cycle;Signal;HPM_P1;HPM_P2
2021/04/09 00:02:25;;;;;;;10.68;6.00;;;;;;;-0.65;100.00;101330.63;5053480;28;20033;-71
2021/04/09 00:04:50;;;;;;;9.40;5.55;;;;;;;-0.64;100.00;101363.25;5052810;28;20049;-71
2021/04/09 00:07:16;;;;;;;7.55;4.65;;;;;;;-0.83;100.00;101326.66;5052969;28;20472;-70
2021/04/09 00:09:42;;;;;;;7.28;4.05;;;;;;;-0.64;100.00;101365.81;5052138;28;20381;-71
2021/04/09 00:12:08;;;;;;;7.60;4.72;;;;;;;-0.86;100.00;101331.03;5052970;28;20400;-70
2021/04/09 00:14:34;;;;;;;8.85;5.30;;;;;;;-0.64;100.00;101362.38;5051821;28;20458;-70
2021/04/09 00:16:59;;;;;;;7.45;4.70;;;;;;;-0.53;100.00;101368.19;5052889;28;20104;-70
2021/04/09 00:19:26;;;;;;;7.47;4.65;;;;;;;-0.80;100.00;101333.50;5052831;28;20035;-70
2021/04/09 00:21:52;;;;;;;8.75;5.00;;;;;;;-0.89;100.00;101320.78;5052751;28;20025;-71
2021/04/09 00:24:18;;;;;;;9.30;4.97;;;;;;;-0.83;100.00;101352.41;5052928;28;20488;-71
2021/04/09 00:26:43;;;;;;;8.50;3.80;;;;;;;-1.19;100.00;101317.84;5052713;28;20109;-71
2021/04/09 00:29:09;;;;;;;8.27;4.95;;;;;;;-1.29;100.00;101327.44;5052764;28;20040;-71
2021/04/09 00:31:35;;;;;;;8.02;5.10;;;;;;;-1.16;100.00;101368.41;5052603;28;20059;-71
2021/04/09 00:34:02;;;;;;;10.20;4.97;;;;;;;-1.28;100.00;101370.31;5052531;28;20082;-71
2021/04/09 00:36:28;;;;;;;7.53;5.05;;;;;;;-1.34;100.00;101356.69;5052654;28;20028;-71
2021/04/09 00:38:54;;;;;;;6.28;4.18;;;;;;;-1.50;100.00;101328.63;5052806;28;20048;-71
2021/04/09 00:41:19;;;;;;;7.68;4.78;;;;;;;-1.87;100.00;101264.06;5053046;28;20083;-71
2021/04/09 00:43:45;;;;;;;8.48;4.95;;;;;;;-1.11;100.00;101366.63;5052485;28;20029;-70
2021/04/09 00:46:11;;;;;;;9.27;5.35;;;;;;;-1.27;100.00;101324.88;5052625;28;20079;-70
2021/04/09 00:48:37;;;;;;;10.40;5.68;;;;;;;-1.01;100.00;101363.88;5052835;28;20099;-71
2021/04/09 00:51:05;;;;;;;9.00;5.47;;;;;;;-0.76;100.00;101366.03;5052560;28;20037;-70
2021/04/09 00:53:30;;;;;;;9.98;5.38;;;;;;;-0.80;100.00;101334.34;5052417;28;20021;-71
2021/04/09 00:55:56;;;;;;;7.78;4.85;;;;;;;-0.90;100.00;101319.09;5052486;28;20029;-70
2021/04/09 00:58:22;;;;;;;7.20;4.85;;;;;;;-0.68;100.00;101373.59;5052511;28;20033;-71
2021/04/09 01:00:48;;;;;;;7.85;4.95;;;;;;;-0.83;100.00;101370.44;5052368;28;20519;-71
2021/04/09 01:03:14;;;;;;;7.53;4.38;;;;;;;-1.04;100.00;101337.34;5052213;28;21385;-70
2021/04/09 01:05:40;;;;;;;7.82;4.90;;;;;;;-0.98;100.00;101342.38;5052158;28;20396;-70
2021/04/09 01:08:07;;;;;;;8.27;5.60;;;;;;;-0.72;100.00;101385.69;5052261;28;20493;-70
2021/04/09 01:10:32;;;;;;;7.97;5.10;;;;;;;-0.93;100.00;101340.59;5052128;28;20021;-70
2021/04/09 01:12:58;;;;;;;8.00;4.55;;;;;;;-0.65;100.00;101389.84;5052058;28;20503;-70
2021/04/09 01:15:24;;;;;;;6.85;4.80;;;;;;;-0.83;100.00;101349.00;5052016;28;20021;-70
2021/04/09 01:18:14;;;;;;;8.05;4.82;;;;;;;-0.52;100.00;101385.34;5051831;28;20032;-70
2021/04/09 01:21:07;;;;;;;7.68;4.72;;;;;;;-0.44;100.00;101382.59;5052105;28;20112;-70
2021/04/09 01:23:41;;;;;;;6.85;4.45;;;;;;;-0.39;100.00;101379.09;5052079;28;20025;-70
2021/04/09 01:26:32;;;;;;;8.93;5.63;;;;;;;-0.28;100.00;101387.44;5051780;28;20029;-70
2021/04/09 01:29:15;;;;;;;;;;;;;;;-0.29;100.00;101385.75;5052608;28;20029;-70
2021/04/09 01:32:00;;;;;;;8.23;4.63;;;;;;;-0.26;100.00;101393.44;5051967;28;19915;-70
2021/04/09 01:34:31;;;;;;;10.15;5.15;;;;;;;-0.33;100.00;101378.13;5051806;28;20029;-70
2021/04/09 01:37:04;;;;;;;8.10;5.32;;;;;;;-0.33;100.00;101380.69;5051834;28;20033;-70
2021/04/09 01:39:36;;;;;;;7.97;5.07;;;;;;;-0.47;100.00;101344.91;5052023;28;20134;-70
2021/04/09 01:42:07;;;;;;;9.45;5.10;;;;;;;-0.31;100.00;101397.81;5051987;28;20048;-70
2021/04/09 01:44:34;;;;;;;9.45;5.25;;;;;;;-0.26;100.00;101397.75;5051817;28;20032;-70
2021/04/09 01:47:01;;;;;;;11.07;5.47;;;;;;;-0.44;100.00;101364.59;5051688;28;20546;-70
2021/04/09 01:49:29;;;;;;;8.65;5.45;;;;;;;-0.44;100.00;101382.59;5051611;28;20029;-70
2021/04/09 01:51:55;;;;;;;7.15;4.78;;;;;;;-0.70;100.00;101358.19;5050629;28;20504;-70
2021/04/09 01:54:23;;;;;;;9.73;6.35;;;;;;;-1.03;100.00;101346.75;5051900;28;20028;-70
2021/04/09 01:56:51;;;;;;;10.45;6.20;;;;;;;-1.04;100.00;101388.81;5052002;28;20446;-70
2021/04/09 01:59:17;;;;;;;10.30;6.00;;;;;;;-1.32;100.00;101353.22;5051861;28;20021;-70
2021/04/09 02:01:48;;;;;;;10.13;5.93;;;;;;;-0.88;100.00;101404.84;5051639;28;20037;-69
2021/04/09 02:04:17;;;;;;;9.50;6.20;;;;;;;-0.91;100.00;101410.03;5051896;28;20048;-70
2021/04/09 02:06:44;;;;;;;10.90;5.70;;;;;;;-1.17;100.00;101372.72;5051794;28;20445;-70
2021/04/09 02:09:12;;;;;;;10.32;5.70;;;;;;;-0.86;100.00;101409.09;5051820;28;20029;-70
2021/04/09 02:11:40;;;;;;;12.68;6.75;;;;;;;-1.21;100.00;101335.91;5051687;28;20025;-70
2021/04/09 02:14:10;;;;;;;10.05;6.10;;;;;;;-0.76;100.00;101400.34;5051877;28;20029;-70
2021/04/09 02:16:36;;;;;;;10.50;5.82;;;;;;;-0.65;100.00;101418.16;5052042;28;20079;-70
2021/04/09 02:19:04;;;;;;;10.95;5.85;;;;;;;-0.70;100.00;101408.84;5051945;28;20127;-70
2021/04/09 02:21:32;;;;;;;10.45;5.32;;;;;;;-0.59;100.00;101420.66;5050974;28;20503;-70
2021/04/09 02:23:59;;;;;;;11.45;5.90;;;;;;;-0.78;100.00;101390.94;5051447;28;20029;-70
2021/04/09 02:26:26;;;;;;;9.15;5.05;;;;;;;-0.72;100.00;101383.97;5051523;28;20033;-70
2021/04/09 02:28:52;;;;;;;10.77;6.07;;;;;;;-0.43;100.00;101421.22;5051408;28;20029;-69
2021/04/09 02:31:18;;;;;;;9.38;5.68;;;;;;;-0.39;100.00;101419.44;5061412;28;20032;-70
2021/04/09 02:33:44;;;;;;;10.32;5.93;;;;;;;-0.35;100.00;101416.78;5074444;28;20028;-70
2021/04/09 02:36:19;;;;;;;10.50;5.85;;;;;;;-0.25;100.00;101413.16;5074722;28;20032;-70
2021/04/09 02:38:53;;;;;;;9.45;5.25;;;;;;;-0.15;100.00;101418.97;5075154;28;20032;-70
2021/04/09 02:41:20;;;;;;;9.90;5.63;;;;;;;-0.27;100.00;101404.63;5072990;28;20080;-70
2021/04/09 02:43:47;;;;;;;8.43;4.90;;;;;;;-0.04;100.00;101416.19;5069358;28;20046;-70
2021/04/09 02:46:26;;;;;;;8.63;5.22;;;;;;;-0.43;100.00;101385.16;5073710;28;20086;-70
2021/04/09 02:48:55;;;;;;;11.90;5.75;;;;;;;-0.43;100.00;101422.97;5073331;28;20020;-70
2021/04/09 02:51:23;;;;;;;12.27;5.38;;;;;;;-0.67;100.00;101385.63;5068494;28;20033;-70
2021/04/09 02:53:49;;;;;;;9.30;5.88;;;;;;;-0.94;100.00;101328.59;5054466;28;20036;-70
2021/04/09 02:56:17;;;;;;;7.65;5.80;;;;;;;-0.45;100.00;101430.69;5054762;28;20188;-70
2021/04/09 02:58:46;;;;;;;11.40;6.90;;;;;;;-0.76;100.00;101420.94;5053867;28;20113;-70
2021/04/09 03:01:12;;;;;;;11.68;6.30;;;;;;;-0.94;100.00;101395.50;5054498;28;20033;-70
2021/04/09 03:03:38;;;;;;;12.32;6.85;;;;;;;-1.11;100.00;101394.94;5054420;28;20044;-70
2021/04/09 03:06:04;;;;;;;9.20;5.93;;;;;;;-1.08;100.00;101403.47;5054255;28;20040;-70
2021/04/09 03:08:30;;;;;;;9.38;5.53;;;;;;;-0.92;100.00;101440.06;5054054;28;20091;-70
2021/04/09 03:10:56;;;;;;;14.20;7.32;;;;;;;-1.06;100.00;101390.56;5054437;28;20078;-70
2021/04/09 03:13:21;;;;;;;13.07;7.75;;;;;;;-0.72;100.00;101435.44;5054209;28;20469;-70
2021/04/09 03:15:54;;;;;;;22.30;14.88;;;;;;;-0.95;100.00;101384.34;5054197;28;20412;-70
2021/04/09 03:18:21;;;;;;;22.73;16.70;;;;;;;-0.78;100.00;101386.63;5056841;28;20496;-70
2021/04/09 03:20:47;;;;;;;15.55;9.07;;;;;;;-0.52;100.00;101426.53;5054432;28;20025;-70
2021/04/09 03:23:12;;;;;;;11.90;6.53;;;;;;;-0.49;100.00;101429.91;5054116;28;20468;-70
2021/04/09 03:25:38;;;;;;;13.95;8.77;;;;;;;-0.85;100.00;101395.34;5052793;28;20033;-70
2021/04/09 03:28:05;;;;;;;11.10;7.85;;;;;;;-0.75;100.00;101386.56;5052514;28;20483;-70
2021/04/09 03:30:30;;;;;;;12.02;7.57;;;;;;;-0.77;100.00;101434.69;5052150;28;20094;-70
2021/04/09 03:32:56;;;;;;;13.30;6.80;;;;;;;-0.85;100.00;101410.78;5052380;28;20476;-70
2021/04/09 03:35:21;;;;;;;9.82;6.07;;;;;;;-0.51;100.00;101441.09;5052287;28;20021;-70
2021/04/09 03:37:48;;;;;;;8.98;5.72;;;;;;;-0.70;100.00;101404.53;5052529;28;20025;-70
2021/04/09 03:40:16;;;;;;;10.65;6.20;;;;;;;-0.47;100.00;101437.63;5053566;28;20439;-70
2021/04/09 03:42:41;;;;;;;9.00;5.95;;;;;;;-0.61;100.00;101449.88;5053422;28;20021;-70
2021/04/09 03:45:08;;;;;;;12.65;8.82;;;;;;;-0.69;100.00;101462.03;5052362;28;20037;-70
2021/04/09 03:47:33;;;;;;;12.95;7.95;;;;;;;-0.52;100.00;101466.00;5052388;28;20106;-69
2021/04/09 03:49:59;;;;;;;13.32;8.48;;;;;;;-0.99;100.00;101433.31;5053422;28;20068;-70
2021/04/09 03:52:25;;;;;;;14.20;8.90;;;;;;;-0.94;100.00;101465.00;5053694;28;20032;-70
2021/04/09 03:54:50;;;;;;;19.30;10.35;;;;;;;-1.00;100.00;101439.34;5052452;28;20029;-70
2021/04/09 03:57:16;;;;;;;14.63;8.43;;;;;;;-0.80;100.00;101480.22;5053493;28;20492;-70
2021/04/09 03:59:42;;;;;;;14.48;8.73;;;;;;;-1.13;100.00;101440.41;5053768;28;20029;-70
2021/04/09 04:02:07;;;;;;;16.48;11.55;;;;;;;-0.83;100.00;101470.81;5053286;28;20040;-70
2021/04/09 04:04:33;;;;;;;20.02;11.40;;;;;;;-0.85;100.00;101440.81;5053593;28;20049;-70
2021/04/09 04:06:58;;;;;;;14.38;8.15;;;;;;;-0.61;100.00;101491.91;5053292;28;20424;-70
2021/04/09 04:09:24;;;;;;;15.15;9.13;;;;;;;-0.58;100.00;101491.00;5053401;28;20447;-70
2021/04/09 04:11:49;;;;;;;17.35;9.77;;;;;;;-0.60;100.00;101495.38;5052890;28;20039;-70
2021/04/09 04:14:15;;;;;;;15.32;9.98;;;;;;;-0.89;100.00;101454.63;5053086;28;20037;-70
2021/04/09 04:16:41;;;;;;;15.35;10.27;;;;;;;-0.83;100.00;101467.41;5051749;28;20025;-70
2021/04/09 04:19:06;;;;;;;15.88;9.63;;;;;;;-0.52;100.00;101490.91;5053076;28;20041;-70
2021/04/09 04:21:32;;;;;;;18.67;9.77;;;;;;;-0.51;100.00;101502.91;5051966;28;20017;-70
2021/04/09 04:23:58;;;;;;;22.55;13.73;;;;;;;-0.74;100.00;101470.69;5052905;28;20102;-70
2021/04/09 04:26:23;;;;;;;26.08;13.07;;;;;;;-0.52;100.00;101506.38;5053115;28;20033;-70
2021/04/09 04:28:49;;;;;;;30.42;16.88;;;;;;;-0.50;100.00;101494.34;5052960;28;20063;-70
2021/04/09 04:31:19;;;;;;;26.80;14.50;;;;;;;-0.28;100.00;101482.78;5052904;28;20025;-70
2021/04/09 04:33:45;;;;;;;18.27;12.77;;;;;;;-0.11;100.00;101495.34;5052905;28;20449;-70
2021/04/09 04:36:10;;;;;;;23.38;14.98;;;;;;;0.11;100.00;101498.41;5052613;28;20021;-70
2021/04/09 04:38:36;;;;;;;28.48;20.40;;;;;;;0.18;100.00;101478.50;5053028;28;20587;-70
2021/04/09 04:41:01;;;;;;;32.20;22.17;;;;;;;0.57;100.00;101517.25;5051989;28;20016;-70
2021/04/09 04:43:27;;;;;;;15.73;11.27;;;;;;;0.73;100.00;101489.41;5051686;28;20029;-70
2021/04/09 04:45:53;;;;;;;13.10;9.25;;;;;;;0.94;100.00;101492.38;5052662;28;20021;-70
2021/04/09 04:48:18;;;;;;;11.07;7.68;;;;;;;1.22;100.00;101490.91;5052519;28;20025;-70
2021/04/09 04:50:44;;;;;;;15.85;11.27;;;;;;;1.48;100.00;101488.50;5052539;28;20024;-70
2021/04/09 04:53:09;;;;;;;15.35;10.68;;;;;;;1.88;100.00;101523.69;5052508;28;20029;-70
2021/04/09 04:55:35;;;;;;;18.23;12.48;;;;;;;2.11;100.00;101521.34;5051745;28;20074;-70
2021/04/09 04:58:00;;;;;;;18.55;12.98;;;;;;;2.25;100.00;101496.84;5052470;28;20071;-70
2021/04/09 05:00:26;;;;;;;31.20;22.08;;;;;;;2.53;100.00;101508.13;5051297;28;20025;-70
2021/04/09 05:02:52;;;;;;;22.05;16.38;;;;;;;2.79;100.00;101522.03;5052354;28;20063;-70
2021/04/09 05:05:17;;;;;;;19.48;12.70;;;;;;;3.11;100.00;101525.41;5052800;28;20044;-68
2021/04/09 05:07:43;;;;;;;20.55;13.52;;;;;;;3.36;100.00;101528.06;5052371;28;20408;-68
2021/04/09 05:10:09;;;;;;;19.02;12.13;;;;;;;3.51;100.00;101504.22;5052319;28;20068;-70
2021/04/09 05:12:35;;;;;;;16.58;10.32;;;;;;;3.91;100.00;101524.50;5052312;28;20025;-70
2021/04/09 05:15:01;;;;;;;14.68;9.82;;;;;;;3.99;100.00;101483.59;5050996;28;20033;-69
2021/04/09 05:17:26;;;;;;;15.45;10.38;;;;;;;4.52;100.00;101531.84;5050837;28;20032;-70
2021/04/09 05:19:52;;;;;;;11.73;7.55;;;;;;;4.47;100.00;101494.84;5052214;28;20060;-70
2021/04/09 05:22:18;;;;;;;8.65;5.32;;;;;;;4.41;100.00;101454.38;5052176;28;20550;-69
2021/04/09 05:24:46;;;;;;;8.68;4.85;;;;;;;4.69;100.00;101519.13;5050919;28;20049;-70
2021/04/09 05:27:11;;;;;;;10.10;4.90;;;;;;;4.36;100.00;101516.00;5052110;28;20439;-70
2021/04/09 05:29:37;;;;;;;8.43;4.80;;;;;;;3.98;100.00;101517.34;5052402;28;20025;-70
2021/04/09 05:32:07;;;;;;;6.97;4.50;;;;;;;4.05;100.00;101520.56;5049380;28;20032;-69
2021/04/09 05:34:32;;;;;;;7.55;4.20;;;;;;;4.63;100.00;101540.13;5047986;28;20055;-69
2021/04/09 05:36:58;;;;;;;7.55;4.00;;;;;;;4.90;100.00;101553.00;5048249;28;20543;-69
2021/04/09 05:39:24;;;;;;;8.35;4.07;;;;;;;4.96;100.00;101552.72;5049215;28;20033;-69
2021/04/09 05:41:49;;;;;;;7.10;4.82;;;;;;;5.33;100.00;101556.50;5048978;28;20111;-69
2021/04/09 05:44:15;;;;;;;9.88;5.10;;;;;;;5.75;100.00;101555.69;5049514;28;20448;-69
2021/04/09 05:46:40;;;;;;;9.45;4.43;;;;;;;5.71;100.00;101534.16;5048876;28;20129;-69
2021/04/09 05:49:05;;;;;;;8.57;4.25;;;;;;;6.05;100.00;101551.84;5048603;28;20033;-69
2021/04/09 05:51:31;;;;;;;7.95;3.92;;;;;;;6.22;100.00;101525.09;5048360;28;20033;-69
2021/04/09 05:53:56;;;;;;;8.90;4.00;;;;;;;6.61;100.00;101530.28;5049472;28;20024;-69
2021/04/09 05:56:22;;;;;;;6.68;4.38;;;;;;;6.85;100.00;101530.94;5049287;28;20495;-69
2021/04/09 05:58:47;;;;;;;6.45;3.75;;;;;;;6.61;100.00;101526.81;5048777;28;20025;-69
2021/04/09 06:01:13;;;;;;;7.60;4.45;;;;;;;7.02;100.00;101566.63;5048983;28;20033;-69
2021/04/09 06:03:38;;;;;;;9.40;6.22;;;;;;;6.85;100.00;101537.88;5049175;28;20095;-69
2021/04/09 06:06:04;;;;;;;10.13;6.05;;;;;;;7.18;100.00;101545.03;5049471;28;20021;-69
2021/04/09 06:08:29;;;;;;;7.47;4.18;;;;;;;7.68;100.00;101589.56;5052912;28;20099;-69
2021/04/09 06:10:55;;;;;;;7.97;4.30;;;;;;;7.84;100.00;101578.38;5052677;28;20558;-70
2021/04/09 06:13:21;;;;;;;7.90;4.40;;;;;;;7.90;100.00;101544.16;5052795;28;20105;-68
2021/04/09 06:15:46;;;;;;;10.30;4.68;;;;;;;8.52;100.00;101580.13;5052740;28;20127;-67
2021/04/09 06:18:11;;;;;;;8.35;4.40;;;;;;;8.91;86.29;101581.53;5052449;28;20086;-69
2021/04/09 06:20:37;;;;;;;7.63;4.57;;;;;;;9.25;77.68;101589.28;5053011;28;20032;-69
2021/04/09 06:23:03;;;;;;;8.60;4.15;;;;;;;9.23;72.19;101548.38;5052504;28;20056;-69
2021/04/09 06:25:30;;;;;;;10.05;4.93;;;;;;;9.58;60.24;101581.34;5052881;28;20029;-69
2021/04/09 06:27:55;;;;;;;10.32;4.53;;;;;;;9.88;66.64;101574.34;5052391;28;20027;-69
2021/04/09 06:30:21;;;;;;;9.82;4.53;;;;;;;10.23;64.10;101578.44;5052219;28;20036;-69
2021/04/09 06:32:46;;;;;;;8.75;4.47;;;;;;;10.27;63.56;101553.78;5052243;28;20480;-69
2021/04/09 06:35:13;;;;;;;12.63;4.32;;;;;;;10.55;57.98;101580.00;5051981;28;20021;-68
2021/04/09 06:37:38;;;;;;;8.88;4.22;;;;;;;10.60;52.58;101588.44;5052220;28;20036;-69
2021/04/09 06:40:05;;;;;;;12.40;4.20;;;;;;;10.61;49.08;101584.88;5052419;28;20033;-69
2021/04/09 06:42:31;;;;;;;6.95;3.75;;;;;;;10.39;52.25;101517.19;5052074;28;20039;-68
2021/04/09 06:44:57;;;;;;;12.93;4.47;;;;;;;10.92;51.91;101590.84;5051895;28;20025;-68
2021/04/09 06:47:23;;;;;;;13.15;4.18;;;;;;;11.09;50.43;101582.75;5051996;28;20381;-68
2021/04/09 06:49:50;;;;;;;8.30;4.20;;;;;;;10.52;50.63;101571.47;5052184;28;20036;-68
2021/04/09 06:52:16;;;;;;;8.43;3.90;;;;;;;10.56;48.90;101576.44;5051983;28;20097;-68
2021/04/09 06:54:42;;;;;;;10.05;4.85;;;;;;;10.96;53.12;101587.06;5052106;28;20103;-68
2021/04/09 06:57:10;;;;;;;11.98;4.07;;;;;;;10.42;50.81;101563.31;5051729;28;20118;-68
2021/04/09 06:59:40;;;;;;;13.43;4.28;;;;;;;10.43;48.09;101591.22;5047539;28;20507;-68
2021/04/09 07:02:11;;;;;;;9.85;3.80;;;;;;;10.58;51.47;101569.31;5051867;28;20531;-68
2021/04/09 07:04:36;;;;;;;11.10;4.03;;;;;;;11.07;50.94;101597.75;5052006;28;20045;-68
2021/04/09 07:07:08;;;;;;;9.68;4.30;;;;;;;10.40;50.42;101580.94;5051489;28;20025;-68
2021/04/09 07:09:34;;;;;;;6.07;3.38;;;;;;;10.28;52.88;101586.91;5051666;28;20492;-68
2021/04/09 07:11:59;;;;;;;92.55;69.60;;;;;;;10.32;51.11;101578.75;5051404;28;20043;-68
2021/04/09 07:14:54;;;;;;;10.68;5.60;;;;;;;10.99;55.04;101614.91;5051663;28;20056;-68
2021/04/09 07:17:33;;;;;;;11.23;4.90;;;;;;;11.22;53.53;101610.84;5048172;28;20040;-69
2021/04/09 07:20:12;;;;;;;7.32;4.00;;;;;;;11.11;50.86;101607.13;5051416;28;20033;-68
2021/04/09 07:22:38;;;;;;;13.15;4.60;;;;;;;11.51;52.90;101614.25;5048001;28;20025;-68
2021/04/09 07:25:10;;;;;;;17.83;8.40;;;;;;;11.21;53.64;101604.75;5051406;28;20098;-68
2021/04/09 07:27:36;;;;;;;15.18;5.13;;;;;;;11.37;49.35;101612.47;5051359;28;20025;-68
2021/04/09 07:30:04;;;;;;;10.75;4.63;;;;;;;11.73;50.57;101590.03;5051353;28;20078;-69
2021/04/09 07:32:32;;;;;;;7.10;3.70;;;;;;;11.06;48.83;101619.66;5051253;28;20099;-68
2021/04/09 07:35:13;;;;;;;8.75;3.33;;;;;;;11.25;51.03;101587.03;5050746;28;20074;-68
2021/04/09 07:37:58;;;;;;;18.48;10.65;;;;;;;12.01;50.69;101607.47;5050746;28;20099;-68
2021/04/09 07:40:33;;;;;;;14.55;4.15;;;;;;;12.20;46.43;101583.44;5046682;28;20029;-69
2021/04/09 07:43:00;;;;;;;15.73;4.38;;;;;;;12.72;44.15;101614.03;5050943;28;20016;-68
2021/04/09 07:45:29;;;;;;;9.75;4.38;;;;;;;12.92;49.41;101608.19;5051142;28;20043;-68
2021/04/09 07:48:04;;;;;;;12.15;3.97;;;;;;;13.21;45.97;101613.19;5051203;28;20060;-67
2021/04/09 07:50:35;;;;;;;10.55;3.40;;;;;;;13.41;41.09;101615.28;5050933;28;20063;-68
2021/04/09 07:53:01;;;;;;;11.38;3.90;;;;;;;13.59;40.97;101615.72;5050535;28;20029;-68
2021/04/09 07:55:31;;;;;;;13.80;3.85;;;;;;;13.60;43.15;101587.56;5050690;28;20039;-69
2021/04/09 07:58:23;;;;;;;16.25;4.78;;;;;;;14.02;44.97;101619.59;5050709;28;20029;-68
2021/04/09 08:00:51;;;;;;;9.20;3.83;;;;;;;14.14;41.28;101608.13;5047697;28;20048;-68
2021/04/09 08:03:37;;;;;;;12.70;3.70;;;;;;;14.09;41.97;101619.03;5050583;28;20142;-68
2021/04/09 08:06:12;;;;;;;9.00;2.50;;;;;;;14.39;42.36;101612.38;5048461;28;20024;-68
2021/04/09 08:08:40;;;;;;;6.07;2.50;;;;;;;14.53;37.47;101604.28;5050413;28;20131;-68
2021/04/09 08:11:30;;;;;;;5.82;2.50;;;;;;;13.96;39.05;101609.53;5050392;28;20496;-68
2021/04/09 08:14:21;;;;;;;9.68;2.08;;;;;;;13.93;38.24;101613.22;5050580;28;20052;-68
2021/04/09 08:16:51;;;;;;;8.35;2.65;;;;;;;14.25;36.45;101610.81;5050594;28;20455;-68
2021/04/09 08:19:22;;;;;;;5.38;2.65;;;;;;;14.18;38.20;101583.22;5050372;28;20462;-68
2021/04/09 08:21:54;;;;;;;5.72;1.92;;;;;;;14.28;35.52;101609.75;5050322;28;20052;-68
2021/04/09 08:24:27;;;;;;;6.65;2.00;;;;;;;14.25;35.21;101604.69;5050064;28;20033;-68
2021/04/09 08:26:52;;;;;;;3.92;1.52;;;;;;;14.14;37.07;101602.84;5049706;28;20069;-68
2021/04/09 08:29:19;;;;;;;7.40;2.03;;;;;;;14.11;36.07;101574.13;5049547;28;20072;-68
2021/04/09 08:31:45;;;;;;;5.10;2.10;;;;;;;14.26;37.06;101609.84;5050076;28;20017;-68
2021/04/09 08:34:12;;;;;;;3.55;1.83;;;;;;;13.96;36.47;101577.91;5050000;28;20523;-67
2021/04/09 08:36:39;;;;;;;4.82;1.90;;;;;;;14.42;38.50;101572.59;5065663;28;20028;-68
2021/04/09 08:39:09;;;;;;;7.28;3.22;;;;;;;14.59;36.97;101603.81;5049978;28;20035;-68
2021/04/09 08:41:36;;;;;;;7.93;2.40;;;;;;;14.43;32.98;101560.25;5049679;28;20037;-68
2021/04/09 08:44:02;;;;;;;4.00;1.73;;;;;;;14.82;37.36;101598.53;5049709;28;20033;-68
2021/04/09 08:46:27;;;;;;;3.63;1.92;;;;;;;14.79;35.76;101583.78;5049727;28;20029;-68
2021/04/09 08:48:55;;;;;;;2.42;1.42;;;;;;;14.10;33.38;101569.78;5064801;28;20412;-68
2021/04/09 08:51:23;;;;;;;4.25;1.75;;;;;;;14.89;35.78;101607.66;5049952;28;20513;-68
2021/04/09 08:53:49;;;;;;;5.55;1.60;;;;;;;14.98;37.27;101598.16;5049641;28;20507;-70
2021/04/09 08:56:33;;;;;;;3.80;1.35;;;;;;;15.00;32.69;101580.41;5049564;28;20033;-69
2021/04/09 08:58:59;;;;;;;3.05;1.75;;;;;;;15.30;35.25;101575.28;5045104;28;20033;-68
2021/04/09 09:01:24;;;;;;;7.82;1.83;;;;;;;15.03;31.96;101610.03;5050384;28;20037;-68
2021/04/09 09:03:49;;;;;;;5.32;1.60;;;;;;;14.57;32.93;101604.88;5049740;28;20420;-68
2021/04/09 09:06:15;;;;;;;5.68;1.38;;;;;;;13.00;33.04;101578.75;5049486;28;20063;-68
2021/04/09 09:08:40;;;;;;;29.42;20.27;;;;;;;13.14;35.25;101614.59;5049423;28;20454;-68
2021/04/09 09:11:06;;;;;;;7.20;4.68;;;;;;;13.35;34.23;101620.97;5048839;28;20029;-68
2021/04/09 09:13:32;;;;;;;7.60;3.47;;;;;;;13.29;35.46;101568.75;5049538;28;20529;-68
2021/04/09 09:15:59;;;;;;;5.70;3.05;;;;;;;13.69;34.79;101613.25;5049569;28;20028;-68
2021/04/09 09:18:24;;;;;;;90.85;7.53;;;;;;;13.77;33.75;101624.06;5049487;28;20036;-68
2021/04/09 09:21:05;;;;;;;5.00;1.67;;;;;;;14.01;33.24;101617.94;5049331;28;20396;-70
2021/04/09 09:23:51;;;;;;;5.60;1.88;;;;;;;14.10;34.36;101622.50;5062687;28;20033;-69
2021/04/09 09:26:31;;;;;;;10.75;3.10;;;;;;;13.84;35.24;101617.41;5049232;28;20495;-69
2021/04/09 09:29:15;;;;;;;;;;;;;;;13.75;36.01;101615.44;5049760;28;20040;-69
2021/04/09 09:31:44;;;;;;;4.85;1.85;;;;;;;13.98;37.07;101618.16;5048743;28;19917;-68
2021/04/09 09:34:21;;;;;;;5.50;2.10;;;;;;;14.18;36.35;101618.34;5051565;28;20035;-68
2021/04/09 09:37:08;;;;;;;6.18;2.72;;;;;;;14.47;36.93;101612.63;5051881;28;20033;-68
2021/04/09 09:39:53;;;;;;;5.78;2.22;;;;;;;14.63;36.58;101609.69;5052307;28;20021;-67
2021/04/09 09:42:21;;;;;;;2.88;1.30;;;;;;;14.50;31.39;101615.06;5055223;28;20037;-68
2021/04/09 09:44:52;;;;;;;5.30;3.00;;;;;;;14.45;35.62;101616.34;5056471;28;20083;-68
2021/04/09 09:47:21;;;;;;;10.15;2.80;;;;;;;14.21;32.92;101609.38;5056076;28;20373;-68
2021/04/09 09:52:46;;;;;;;2.33;1.20;;;;;;;13.78;28.30;101609.09;5055687;28;20029;-68
2021/04/09 09:55:12;;;;;;;4.10;1.60;;;;;;;12.47;29.44;101610.47;5056584;28;20028;-68
2021/04/09 09:58:10;;;;;;;3.17;1.15;;;;;;;12.13;30.98;101579.53;5056213;28;20029;-69
2021/04/09 10:00:40;;;;;;;3.88;1.20;;;;;;;12.36;27.65;101599.84;5055864;28;20021;-68
2021/04/09 10:03:13;;;;;;;3.22;1.20;;;;;;;12.60;29.78;101592.06;5056046;28;20277;-69
2021/04/09 10:05:39;;;;;;;3.15;1.80;;;;;;;12.45;27.92;101520.34;5055924;28;20021;-68
2021/04/09 10:08:06;;;;;;;4.28;1.70;;;;;;;12.97;34.63;101581.59;5055498;28;20381;-68
2021/04/09 10:10:38;;;;;;;3.33;1.40;;;;;;;13.42;34.24;101573.97;5055547;28;20029;-68
2021/04/09 10:13:13;;;;;;;2.88;1.40;;;;;;;13.88;37.48;101595.13;5055523;28;20469;-68
2021/04/09 10:15:38;;;;;;;6.13;1.70;;;;;;;13.69;36.71;101594.81;5055293;28;20083;-68
2021/04/09 10:18:07;;;;;;;7.95;2.60;;;;;;;13.75;34.93;101597.00;5055439;28;20088;-68
2021/04/09 10:20:33;;;;;;;8.55;2.47;;;;;;;13.44;34.26;101570.28;5055813;28;20108;-68
2021/04/09 10:22:58;;;;;;;9.63;2.60;;;;;;;13.31;33.44;101568.66;5055447;28;20116;-67
2021/04/09 10:25:31;;;;;;;5.47;1.85;;;;;;;13.28;36.32;101558.34;5055345;28;20021;-68
2021/04/09 10:27:56;;;;;;;7.18;1.75;;;;;;;13.62;35.69;101601.50;5055146;28;20480;-68
2021/04/09 10:30:29;;;;;;;6.80;2.80;;;;;;;13.37;36.00;101598.03;5055228;28;20025;-68
2021/04/09 10:32:55;;;;;;;6.57;2.60;;;;;;;13.41;36.41;101588.94;5055189;28;20068;-68
2021/04/09 10:35:25;;;;;;;6.43;1.92;;;;;;;13.43;34.30;101592.31;5054243;28;20053;-68
2021/04/09 10:37:51;;;;;;;;;;;;;;;13.31;36.54;101597.63;5055719;28;20113;-68
2021/04/09 10:40:17;;;;;;;2.92;1.38;;;;;;;12.93;35.00;101557.28;5055032;28;20003;-69
2021/04/09 10:42:58;;;;;;;4.93;1.70;;;;;;;12.88;33.06;101519.91;5054964;28;20452;-68
2021/04/09 10:45:23;;;;;;;2.60;1.60;;;;;;;13.33;34.72;101575.50;5055134;28;20024;-68
2021/04/09 10:47:51;;;;;;;4.60;1.38;;;;;;;13.72;36.83;101580.56;5054729;28;20127;-68
2021/04/09 10:50:17;;;;;;;1.73;1.27;;;;;;;13.57;32.44;101550.97;5055150;28;20029;-68
2021/04/09 10:52:43;;;;;;;3.38;1.80;;;;;;;13.47;34.84;101550.78;5053772;28;20028;-68
2021/04/09 10:55:08;;;;;;;2.78;1.02;;;;;;;13.38;33.59;101570.72;5054667;28;20029;-68
2021/04/09 10:57:35;;;;;;;4.28;1.55;;;;;;;12.80;31.44;101548.56;5054711;28;20036;-68
2021/04/09 11:00:02;;;;;;;3.83;1.50;;;;;;;12.90;33.10;101554.88;5054864;28;20040;-68
2021/04/09 11:02:28;;;;;;;2.28;1.30;;;;;;;12.56;32.01;101559.03;5054642;28;20033;-68
2021/04/09 11:04:56;;;;;;;3.33;1.23;;;;;;;12.53;32.06;101586.38;5054571;28;20049;-68
2021/04/09 11:07:43;;;;;;;3.13;1.27;;;;;;;12.83;33.40;101592.25;5054469;28;20111;-69
2021/04/09 11:10:13;;;;;;;1.83;1.13;;;;;;;12.73;31.05;101545.53;5054598;28;20032;-68
2021/04/09 11:12:45;;;;;;;2.67;1.20;;;;;;;12.97;32.47;101553.47;5054704;28;20029;-68
2021/04/09 11:15:19;;;;;;;2.58;1.30;;;;;;;13.15;31.74;101580.25;5054643;28;20327;-68
2021/04/09 11:17:57;;;;;;;5.07;1.65;;;;;;;12.95;32.51;101573.78;5054453;28;20067;-68
2021/04/09 11:20:35;;;;;;;4.13;1.52;;;;;;;12.77;33.93;101551.41;5054304;28;20035;-68
2021/04/09 11:23:06;;;;;;;2.90;1.30;;;;;;;12.91;36.05;101553.06;5054658;28;20111;-68
2021/04/09 11:25:42;;;;;;;3.13;1.35;;;;;;;12.71;31.42;101538.69;5054416;28;20104;-69
2021/04/09 11:28:21;;;;;;;2.25;0.98;;;;;;;12.38;32.02;101563.75;5054362;28;20029;-69
2021/04/09 11:31:05;;;;;;;3.60;1.60;;;;;;;11.74;33.72;101553.16;5053960;28;20021;-69